Time;durP1;ratioP1;P1;durP2;ratioP2;P2;SDS_P1;SDS_P2;PMS_P1;PMS_P2;Temp;Humidity;BMP_temperature;BMP_pressure;BME280_temperature;BME280_humidity;BME280_pressure;Samples;Min_cycle;Max_cycle;Signal;HPM_P1;HPM_P2
2021/11/30 00:00:49;;;;;;;3.08;2.35;;;;;;;;;;5051857;28;20645;-58
2021/11/30 00:03:14;;;;;;;2.92;2.55;;;;;;;;;;5038353;28;20037;-58
2021/11/30 00:05:40;;;;;;;3.92;3.15;;;;;;;;;;5038911;28;20036;-57
2021/11/30 00:08:05;;;;;;;2.80;2.35;;;;;;;;;;5034068;28;20063;-57
2021/11/30 00:10:44;;;;;;;4.05;2.75;;;;;;;;;;5035532;28;20036;-58
2021/11/30 00:13:18;;;;;;;3.33;2.38;;;;;;;;;;5037376;28;20037;-56
2021/11/30 00:15:44;;;;;;;3.10;2.50;;;;;;;;;;5032958;28;20033;-57
2021/11/30 00:18:10;;;;;;;4.15;2.63;;;;;;;;;;5036021;28;20041;-58
2021/11/30 00:20:37;;;;;;;3.15;2.63;;;;;;;;;;5037233;28;20032;-58
2021/11/30 00:23:03;;;;;;;3.00;2.42;;;;;;;;;;5039071;28;20025;-60
2021/11/30 00:25:28;;;;;;;2.90;2.30;;;;;;;;;;5037977;28;20367;-60
2021/11/30 00:27:54;;;;;;;3.42;2.65;;;;;;;;;;5040638;28;20028;-59
2021/11/30 00:30:21;;;;;;;3.13;2.55;;;;;;;;;;5037133;28;20024;-59
2021/11/30 00:32:47;;;;;;;2.90;2.33;;;;;;;;;;5039337;28;20029;-59
2021/11/30 00:35:12;;;;;;;3.08;2.50;;;;;;;;;;5034024;28;20038;-60
2021/11/30 00:37:38;;;;;;;3.80;2.63;;;;;;;;;;5040337;28;20052;-60
2021/11/30 00:40:04;;;;;;;4.00;2.33;;;;;;;;;;5037016;28;20065;-59
2021/11/30 00:42:29;;;;;;;10.60;3.35;;;;;;;;;;5040251;28;20454;-59
2021/11/30 00:44:57;;;;;;;2.83;2.40;;;;;;;;;;5036001;28;20068;-59
2021/11/30 00:47:28;;;;;;;2.67;2.15;;;;;;;;;;5038429;28;20112;-60
2021/11/30 00:49:54;;;;;;;3.00;2.40;;;;;;;;;;5039213;28;20044;-60
2021/11/30 00:52:19;;;;;;;2.63;2.10;;;;;;;;;;5039087;28;20033;-59
2021/11/30 00:54:45;;;;;;;2.72;2.17;;;;;;;;;;5036125;28;20028;-59
2021/11/30 00:57:13;;;;;;;3.38;2.92;;;;;;;;;;5038492;28;20029;-58
2021/11/30 00:59:38;;;;;;;3.22;2.42;;;;;;;;;;5037222;28;20048;-58
2021/11/30 01:02:04;;;;;;;5.28;2.45;;;;;;;;;;5036647;28;20025;-58
2021/11/30 01:04:29;;;;;;;6.60;3.22;;;;;;;;;;5033725;28;20030;-58
2021/11/30 01:06:54;;;;;;;3.00;2.60;;;;;;;;;;5040024;28;20032;-58
2021/11/30 01:09:20;;;;;;;3.63;2.30;;;;;;;;;;5033439;28;20482;-58
2021/11/30 01:11:46;;;;;;;3.42;2.47;;;;;;;;;;5033067;28;20363;-60
2021/11/30 01:14:11;;;;;;;4.25;3.58;;;;;;;;;;5035744;28;20037;-58
2021/11/30 01:16:37;;;;;;;3.10;2.28;;;;;;;;;;5037470;28;20034;-57
2021/11/30 01:19:04;;;;;;;3.15;2.80;;;;;;;;;;5020836;28;20449;-59
2021/11/30 01:21:30;;;;;;;2.90;2.22;;;;;;;;;;5037511;28;20132;-56
2021/11/30 01:23:55;;;;;;;2.75;2.25;;;;;;;;;;5034375;28;20023;-58
2021/11/30 01:26:21;;;;;;;2.92;2.40;;;;;;;;;;5036728;28;20033;-59
2021/11/30 01:28:46;;;;;;;2.90;2.35;;;;;;;;;;5032958;28;20043;-59
2021/11/30 01:31:12;;;;;;;3.25;2.47;;;;;;;;;;5036418;28;20041;-58
2021/11/30 01:33:37;;;;;;;3.00;2.60;;;;;;;;;;5036438;28;20038;-59
2021/11/30 01:36:04;;;;;;;3.22;2.53;;;;;;;;;;5036148;28;20421;-57
2021/11/30 01:38:31;;;;;;;3.72;2.22;;;;;;;;;;5037320;28;20034;-55
2021/11/30 01:40:59;;;;;;;2.80;2.28;;;;;;;;;;5037110;28;20044;-58
2021/11/30 01:43:27;;;;;;;4.65;2.70;;;;;;;;;;5038004;28;20036;-58
2021/11/30 01:50:51;;;;;;;3.10;2.45;;;;;;;;;;5038746;28;19921;-56
2021/11/30 01:53:17;;;;;;;3.70;2.72;;;;;;;;;;5039271;28;20604;-56
2021/11/30 01:55:45;;;;;;;2.95;2.45;;;;;;;;;;5036547;28;20057;-56
2021/11/30 01:58:12;;;;;;;2.80;2.08;;;;;;;;;;5035096;28;20086;-56
2021/11/30 02:00:39;;;;;;;3.28;2.45;;;;;;;;;;5035045;28;20041;-58
2021/11/30 02:03:06;;;;;;;2.95;2.25;;;;;;;;;;5034516;28;20029;-57
2021/11/30 02:05:37;;;;;;;4.22;2.40;;;;;;;;;;5030633;28;20029;-56
2021/11/30 02:08:03;;;;;;;2.50;1.80;;;;;;;;;;5033346;28;20435;-55
2021/11/30 02:10:29;;;;;;;2.92;2.42;;;;;;;;;;5036743;28;20097;-57
2021/11/30 02:12:55;;;;;;;3.00;2.30;;;;;;;;;;5034256;28;20108;-56
2021/11/30 02:15:23;;;;;;;3.30;2.47;;;;;;;;;;5035402;28;20056;-57
2021/11/30 02:17:50;;;;;;;2.70;2.15;;;;;;;;;;5036521;28;20090;-55
2021/11/30 02:20:15;;;;;;;2.65;2.20;;;;;;;;;;5034293;28;20029;-56
2021/11/30 02:22:47;;;;;;;2.67;2.13;;;;;;;;;;5035628;28;20037;-57
2021/11/30 02:25:12;;;;;;;2.53;1.90;;;;;;;;;;5036279;28;20048;-56
2021/11/30 02:27:38;;;;;;;2.53;1.85;;;;;;;;;;5030767;28;20037;-57
2021/11/30 02:30:04;;;;;;;2.63;2.00;;;;;;;;;;5034702;28;20083;-57
2021/11/30 02:32:29;;;;;;;2.78;2.25;;;;;;;;;;5032334;28;20030;-57
2021/11/30 02:34:55;;;;;;;2.80;2.17;;;;;;;;;;5033599;28;20509;-58
2021/11/30 02:37:26;;;;;;;3.08;2.53;;;;;;;;;;5035409;28;20340;-55
2021/11/30 02:39:52;;;;;;;2.90;2.28;;;;;;;;;;5032761;28;20525;-56
2021/11/30 02:42:17;;;;;;;2.58;1.95;;;;;;;;;;5053676;28;20059;-56
2021/11/30 02:44:43;;;;;;;3.03;2.38;;;;;;;;;;5033916;28;20463;-55
2021/11/30 02:47:11;;;;;;;2.72;2.05;;;;;;;;;;5035299;28;20632;-56
2021/11/30 02:49:38;;;;;;;2.78;2.10;;;;;;;;;;5035121;28;20348;-57
2021/11/30 02:52:09;;;;;;;2.63;1.98;;;;;;;;;;5018713;28;20434;-58
2021/11/30 02:54:36;;;;;;;2.60;2.00;;;;;;;;;;5036251;28;20036;-57
2021/11/30 02:57:04;;;;;;;2.53;1.80;;;;;;;;;;5032708;28;20047;-57
2021/11/30 02:59:35;;;;;;;3.33;2.63;;;;;;;;;;5032725;28;20391;-57
2021/11/30 03:02:04;;;;;;;3.72;2.53;;;;;;;;;;5032259;28;20036;-57
2021/11/30 03:04:31;;;;;;;9.57;2.47;;;;;;;;;;5032638;28;20107;-58
2021/11/30 03:06:58;;;;;;;3.17;2.42;;;;;;;;;;5038564;28;20033;-56
2021/11/30 03:09:24;;;;;;;3.03;2.30;;;;;;;;;;5036006;28;20033;-57
2021/11/30 03:11:50;;;;;;;3.28;2.40;;;;;;;;;;5034445;28;20025;-57
2021/11/30 03:14:16;;;;;;;2.70;2.10;;;;;;;;;;5036357;28;20041;-57
2021/11/30 03:16:44;;;;;;;2.97;2.45;;;;;;;;;;5037566;28;20082;-57
2021/11/30 03:19:09;;;;;;;2.90;2.45;;;;;;;;;;5039257;28;20041;-57
2021/11/30 03:21:35;;;;;;;3.17;2.70;;;;;;;;;;5038754;28;20480;-57
2021/11/30 03:24:01;;;;;;;2.80;2.30;;;;;;;;;;5039853;28;20107;-56
2021/11/30 03:26:26;;;;;;;2.50;1.85;;;;;;;;;;5038691;28;20036;-56
2021/11/30 03:28:52;;;;;;;3.63;2.95;;;;;;;;;;5042591;28;20037;-56
2021/11/30 03:34:05;;;;;;;2.80;2.17;;;;;;;;;;5039658;28;20111;-55
2021/11/30 03:36:32;;;;;;;2.90;2.35;;;;;;;;;;5039226;28;20485;-57
2021/11/30 03:39:00;;;;;;;4.22;3.20;;;;;;;;;;5038131;28;20121;-55
2021/11/30 03:41:29;;;;;;;2.70;2.10;;;;;;;;;;5039958;28;20450;-55
2021/11/30 03:43:55;;;;;;;3.10;2.63;;;;;;;;;;5035335;28;20034;-56
2021/11/30 03:46:20;;;;;;;2.90;2.40;;;;;;;;;;5040325;28;20516;-57
2021/11/30 03:48:45;;;;;;;3.00;2.42;;;;;;;;;;5034954;28;20536;-56
2021/11/30 03:51:11;;;;;;;3.17;2.30;;;;;;;;;;5038105;28;20038;-57
2021/11/30 03:53:36;;;;;;;3.20;2.38;;;;;;;;;;5037548;28;20159;-56
2021/11/30 03:56:02;;;;;;;4.07;2.65;;;;;;;;;;5037506;28;20033;-58
2021/11/30 03:58:28;;;;;;;2.75;2.17;;;;;;;;;;5036905;28;20030;-56
2021/11/30 04:00:53;;;;;;;10.45;2.72;;;;;;;;;;5038028;28;20444;-56
2021/11/30 04:03:21;;;;;;;3.13;2.53;;;;;;;;;;5038885;28;20029;-57
2021/11/30 04:05:46;;;;;;;2.60;1.92;;;;;;;;;;5039219;28;20901;-57
2021/11/30 04:08:11;;;;;;;3.00;2.30;;;;;;;;;;5040292;28;20124;-58
2021/11/30 04:10:37;;;;;;;2.97;2.15;;;;;;;;;;5039040;28;20037;-56
2021/11/30 04:13:02;;;;;;;2.83;2.28;;;;;;;;;;5036431;28;20073;-58
2021/11/30 04:15:28;;;;;;;2.65;2.10;;;;;;;;;;5035371;28;20033;-58
2021/11/30 04:17:53;;;;;;;2.75;2.17;;;;;;;;;;5032558;28;20029;-57
2021/11/30 04:20:19;;;;;;;3.97;2.70;;;;;;;;;;5035552;28;20778;-57
2021/11/30 04:22:44;;;;;;;2.90;2.33;;;;;;;;;;5034546;28;20025;-58
2021/11/30 04:25:12;;;;;;;3.92;2.08;;;;;;;;;;5037656;28;20029;-57
2021/11/30 04:27:38;;;;;;;2.88;2.30;;;;;;;;;;5037445;28;20335;-58
2021/11/30 04:30:06;;;;;;;3.30;2.47;;;;;;;;;;5036506;28;20094;-58
2021/11/30 04:32:31;;;;;;;3.72;3.03;;;;;;;;;;5033485;28;20038;-57
2021/11/30 04:34:57;;;;;;;3.13;2.80;;;;;;;;;;5035109;28;20048;-58
2021/11/30 04:37:23;;;;;;;11.32;2.70;;;;;;;;;;5054244;28;20037;-58
2021/11/30 04:39:48;;;;;;;3.13;2.53;;;;;;;;;;5037892;28;20022;-58
2021/11/30 04:42:14;;;;;;;2.95;2.40;;;;;;;;;;5038452;28;20062;-58
2021/11/30 04:44:49;;;;;;;3.15;2.30;;;;;;;;;;5038861;28;20056;-58
2021/11/30 04:47:14;;;;;;;3.47;2.42;;;;;;;;;;5037980;28;20032;-58
2021/11/30 04:52:17;;;;;;;3.53;2.28;;;;;;;;;;5035947;28;20029;-58
2021/11/30 04:54:43;;;;;;;3.00;2.30;;;;;;;;;;5036400;28;20360;-57
2021/11/30 04:57:08;;;;;;;3.75;2.58;;;;;;;;;;5039152;28;20040;-58
2021/11/30 04:59:34;;;;;;;4.22;3.83;;;;;;;;;;5036784;28;20050;-55
2021/11/30 05:02:00;;;;;;;3.30;2.88;;;;;;;;;;5037345;28;20047;-58
2021/11/30 05:04:25;;;;;;;3.70;2.72;;;;;;;;;;5038304;28;20033;-56
2021/11/30 05:06:50;;;;;;;3.13;2.58;;;;;;;;;;5036667;28;20340;-58
2021/11/30 05:09:16;;;;;;;3.17;2.83;;;;;;;;;;5038216;28;20356;-56
2021/11/30 05:11:42;;;;;;;4.20;2.70;;;;;;;;;;5036134;28;20176;-58
2021/11/30 05:14:07;;;;;;;3.38;2.70;;;;;;;;;;5038308;28;20448;-57
2021/11/30 05:16:33;;;;;;;3.03;2.58;;;;;;;;;;5036631;28;20049;-57
2021/11/30 05:18:58;;;;;;;3.28;2.58;;;;;;;;;;5037953;28;20051;-56
2021/11/30 05:21:25;;;;;;;3.30;2.75;;;;;;;;;;5037129;28;20541;-56
2021/11/30 05:23:50;;;;;;;3.15;2.45;;;;;;;;;;5038102;28;20128;-57
2021/11/30 05:26:15;;;;;;;3.42;2.78;;;;;;;;;;5040212;28;20179;-56
2021/11/30 05:28:42;;;;;;;3.20;2.60;;;;;;;;;;5039780;28;20421;-54
2021/11/30 05:31:09;;;;;;;3.20;2.42;;;;;;;;;;5032541;28;20041;-54
2021/11/30 05:33:35;;;;;;;3.22;2.90;;;;;;;;;;5033683;28;20038;-55
2021/11/30 05:36:02;;;;;;;3.50;2.83;;;;;;;;;;5036933;28;20112;-55
2021/11/30 05:38:28;;;;;;;3.97;2.92;;;;;;;;;;5034785;28;20672;-54
2021/11/30 05:40:53;;;;;;;2.92;2.45;;;;;;;;;;5022652;28;20033;-55
2021/11/30 05:43:19;;;;;;;2.78;2.35;;;;;;;;;;5036278;28;20029;-54
2021/11/30 05:45:45;;;;;;;2.95;2.42;;;;;;;;;;5051836;28;20051;-56
2021/11/30 05:48:11;;;;;;;3.85;2.65;;;;;;;;;;5035120;28;20032;-55
2021/11/30 05:50:37;;;;;;;3.90;2.80;;;;;;;;;;5037685;28;20044;-54
2021/11/30 05:53:03;;;;;;;3.55;2.55;;;;;;;;;;5036573;28;20037;-56
2021/11/30 05:55:29;;;;;;;3.10;2.55;;;;;;;;;;5036933;28;20044;-46
2021/11/30 05:57:55;;;;;;;3.13;2.63;;;;;;;;;;5036302;28;20021;-46
2021/11/30 06:00:22;;;;;;;5.85;3.53;;;;;;;;;;5037326;28;20115;-45
2021/11/30 06:02:58;;;;;;;3.13;2.60;;;;;;;;;;5035564;28;20021;-46
2021/11/30 06:05:24;;;;;;;7.13;3.13;;;;;;;;;;5036196;28;20470;-45
2021/11/30 06:07:50;;;;;;;3.58;2.55;;;;;;;;;;5037853;28;20032;-45
2021/11/30 06:10:16;;;;;;;6.28;2.45;;;;;;;;;;5036092;28;20029;-46
2021/11/30 06:12:41;;;;;;;3.28;2.60;;;;;;;;;;5034070;28;20032;-45
2021/11/30 06:15:08;;;;;;;5.10;3.10;;;;;;;;;;5036480;28;20099;-46
2021/11/30 06:17:33;;;;;;;4.65;3.08;;;;;;;;;;5032951;28;20103;-45
2021/11/30 06:19:59;;;;;;;3.38;3.00;;;;;;;;;;5034551;28;20371;-46
2021/11/30 06:22:25;;;;;;;3.50;2.80;;;;;;;;;;5032579;28;20049;-46
2021/11/30 06:24:50;;;;;;;3.42;3.13;;;;;;;;;;5032507;28;20072;-45
2021/11/30 06:27:16;;;;;;;3.97;3.00;;;;;;;;;;5038161;28;20120;-47
2021/11/30 06:29:41;;;;;;;3.33;2.58;;;;;;;;;;5037703;28;20147;-47
2021/11/30 06:32:07;;;;;;;3.85;2.40;;;;;;;;;;5034654;28;20099;-50
2021/11/30 06:34:33;;;;;;;2.92;2.50;;;;;;;;;;5033882;28;20044;-47
2021/11/30 06:36:58;;;;;;;3.08;2.60;;;;;;;;;;5030799;28;20081;-49
2021/11/30 06:39:24;;;;;;;3.45;2.92;;;;;;;;;;5032339;28;20040;-46
2021/11/30 06:41:49;;;;;;;3.35;2.22;;;;;;;;;;5033031;28;20374;-44
2021/11/30 06:44:14;;;;;;;3.10;2.60;;;;;;;;;;5031886;28;20104;-48
2021/11/30 06:46:40;;;;;;;3.38;2.55;;;;;;;;;;5034501;28;20029;-49
2021/11/30 06:49:06;;;;;;;3.13;2.50;;;;;;;;;;5034122;28;20033;-46
2021/11/30 06:51:31;;;;;;;4.15;2.40;;;;;;;;;;5039585;28;20053;-54
2021/11/30 06:53:57;;;;;;;3.28;2.72;;;;;;;;;;5041614;28;20103;-54
2021/11/30 06:56:22;;;;;;;3.05;2.53;;;;;;;;;;5040971;28;20095;-55
2021/11/30 06:58:47;;;;;;;3.17;2.28;;;;;;;;;;5038105;28;20040;-54
2021/11/30 07:01:13;;;;;;;3.20;2.67;;;;;;;;;;5039585;28;20469;-55
2021/11/30 07:03:44;;;;;;;15.35;3.47;;;;;;;;;;5041009;28;20037;-55
2021/11/30 07:09:14;;;;;;;;;;;;;;;;;;5057754;28;20041;-52
2021/11/30 07:14:05;;;;;;;3.22;2.70;;;;;;;;;;5040781;28;20095;-53
2021/11/30 07:16:32;;;;;;;3.22;2.33;;;;;;;;;;5040695;28;20040;-51
2021/11/30 07:18:58;;;;;;;3.15;2.75;;;;;;;;;;5038577;28;20505;-54
2021/11/30 07:21:27;;;;;;;2.85;2.28;;;;;;;;;;5033674;28;20106;-54
2021/11/30 07:23:55;;;;;;;2.65;2.13;;;;;;;;;;5037577;28;20025;-54
2021/11/30 07:26:21;;;;;;;2.70;2.17;;;;;;;;;;5036677;28;20128;-55
2021/11/30 07:28:46;;;;;;;3.78;2.50;;;;;;;;;;5037721;28;20116;-54
2021/11/30 07:31:13;;;;;;;2.80;2.20;;;;;;;;;;5040102;28;20025;-56
2021/11/30 07:33:47;;;;;;;2.75;2.22;;;;;;;;;;5036366;28;20334;-54
2021/11/30 07:36:18;;;;;;;3.35;2.63;;;;;;;;;;5035816;28;20597;-55
2021/11/30 07:38:47;;;;;;;2.80;2.20;;;;;;;;;;5039873;28;20041;-53
2021/11/30 07:41:13;;;;;;;3.10;2.50;;;;;;;;;;5036343;28;20648;-56
2021/11/30 07:43:38;;;;;;;2.63;2.10;;;;;;;;;;5037501;28;20048;-55
2021/11/30 07:46:04;;;;;;;3.08;2.65;;;;;;;;;;5041109;28;20060;-55
2021/11/30 07:48:31;;;;;;;5.78;2.47;;;;;;;;;;5036758;28;20033;-53
2021/11/30 07:50:57;;;;;;;3.13;2.53;;;;;;;;;;5037848;28;20503;-55
2021/11/30 07:53:24;;;;;;;2.90;2.38;;;;;;;;;;5040944;28;20084;-55
2021/11/30 07:55:50;;;;;;;3.05;2.17;;;;;;;;;;5037493;28;20283;-55
2021/11/30 07:58:16;;;;;;;2.47;1.88;;;;;;;;;;5036437;28;20041;-52
2021/11/30 08:00:42;;;;;;;2.90;2.33;;;;;;;;;;5037725;28;20528;-53
2021/11/30 08:03:07;;;;;;;3.15;2.35;;;;;;;;;;5040044;28;20024;-53
2021/11/30 08:05:33;;;;;;;7.03;2.75;;;;;;;;;;5039010;28;20068;-51
2021/11/30 08:07:58;;;;;;;2.70;2.00;;;;;;;;;;5039471;28;20051;-51
2021/11/30 08:10:27;;;;;;;2.88;2.45;;;;;;;;;;5035882;28;20117;-53
2021/11/30 08:12:52;;;;;;;2.60;2.13;;;;;;;;;;5036153;28;20041;-52
2021/11/30 08:15:18;;;;;;;2.97;2.45;;;;;;;;;;5038947;28;20132;-54
2021/11/30 08:17:44;;;;;;;3.03;2.58;;;;;;;;;;5035739;28;20112;-53
2021/11/30 08:20:09;;;;;;;3.08;2.30;;;;;;;;;;5037977;28;20511;-53
2021/11/30 08:22:37;;;;;;;2.80;2.33;;;;;;;;;;5036871;28;20042;-53
2021/11/30 08:25:04;;;;;;;3.10;2.58;;;;;;;;;;5036749;28;20552;-54
2021/11/30 08:27:30;;;;;;;2.70;2.10;;;;;;;;;;5041052;28;20104;-53
2021/11/30 08:29:55;;;;;;;2.55;2.00;;;;;;;;;;5033874;28;20120;-53
2021/11/30 08:32:22;;;;;;;2.83;2.25;;;;;;;;;;5038005;28;20509;-54
2021/11/30 08:34:49;;;;;;;2.78;2.10;;;;;;;;;;5032271;28;20536;-54
2021/11/30 08:37:15;;;;;;;2.80;2.28;;;;;;;;;;5034992;28;20029;-54
2021/11/30 08:39:41;;;;;;;2.85;2.40;;;;;;;;;;5034344;28;20497;-54
2021/11/30 08:42:10;;;;;;;2.80;2.38;;;;;;;;;;5036637;28;20056;-54
2021/11/30 08:44:36;;;;;;;2.50;2.00;;;;;;;;;;5033811;28;20030;-54
2021/11/30 08:47:03;;;;;;;2.92;2.30;;;;;;;;;;5033217;28;20042;-53
2021/11/30 08:49:29;;;;;;;2.70;2.35;;;;;;;;;;5036510;28;20041;-54
2021/11/30 08:51:56;;;;;;;3.00;2.42;;;;;;;;;;5037087;28;20071;-54
2021/11/30 08:54:23;;;;;;;2.70;2.13;;;;;;;;;;5036166;28;20459;-53
2021/11/30 08:56:48;;;;;;;2.70;2.20;;;;;;;;;;5036316;28;20032;-52
2021/11/30 08:59:14;;;;;;;2.60;2.10;;;;;;;;;;5035673;28;20042;-55
2021/11/30 09:01:41;;;;;;;2.90;2.30;;;;;;;;;;5034692;28;20183;-54
2021/11/30 09:04:07;;;;;;;2.70;2.28;;;;;;;;;;5035906;28;20416;-53
2021/11/30 09:06:32;;;;;;;2.60;2.00;;;;;;;;;;5036484;28;20032;-50
2021/11/30 09:08:58;;;;;;;2.88;2.20;;;;;;;;;;5037935;28;20451;-54
2021/11/30 09:11:24;;;;;;;2.50;1.90;;;;;;;;;;5033063;28;20083;-53
2021/11/30 09:13:50;;;;;;;2.70;2.35;;;;;;;;;;5035990;28;20061;-54
2021/11/30 09:16:16;;;;;;;2.80;2.30;;;;;;;;;;5035307;28;20037;-54
2021/11/30 09:18:42;;;;;;;2.70;2.00;;;;;;;;;;5034480;28;20044;-54
2021/11/30 09:21:07;;;;;;;2.97;2.15;;;;;;;;;;5035893;28;20056;-55
2021/11/30 09:23:33;;;;;;;2.53;1.92;;;;;;;;;;5036238;28;20119;-54
2021/11/30 09:25:59;;;;;;;2.50;1.90;;;;;;;;;;5033473;28;20279;-53
2021/11/30 09:28:25;;;;;;;2.60;2.00;;;;;;;;;;5034585;28;20106;-54
2021/11/30 09:30:50;;;;;;;2.60;2.03;;;;;;;;;;5037877;28;20033;-55
2021/11/30 09:33:16;;;;;;;2.50;1.90;;;;;;;;;;5038023;28;20087;-53
2021/11/30 09:35:41;;;;;;;2.60;2.10;;;;;;;;;;5032216;28;20049;-51
2021/11/30 09:38:08;;;;;;;2.50;2.00;;;;;;;;;;5038536;28;20407;-55
2021/11/30 09:40:35;;;;;;;2.70;2.17;;;;;;;;;;5039829;28;20028;-55
2021/11/30 09:43:00;;;;;;;2.80;2.05;;;;;;;;;;5037725;28;20044;-53
2021/11/30 09:45:26;;;;;;;2.60;2.00;;;;;;;;;;5035494;28;20463;-54
2021/11/30 09:47:53;;;;;;;2.60;2.08;;;;;;;;;;5031411;28;20114;-52
2021/11/30 09:50:21;;;;;;;2.88;2.35;;;;;;;;;;5035880;28;20037;-54
2021/11/30 09:52:51;;;;;;;2.60;1.92;;;;;;;;;;5032832;28;20036;-53
2021/11/30 09:55:18;;;;;;;2.70;2.22;;;;;;;;;;5034994;28;20145;-53
2021/11/30 09:57:45;;;;;;;2.60;2.10;;;;;;;;;;5034136;28;20033;-54
2021/11/30 10:00:12;;;;;;;2.60;1.90;;;;;;;;;;5033817;28;20110;-55
2021/11/30 10:02:38;;;;;;;2.70;2.17;;;;;;;;;;5035621;28;20033;-55
2021/11/30 10:05:04;;;;;;;2.80;2.33;;;;;;;;;;5036180;28;20084;-54
2021/11/30 10:07:39;;;;;;;2.60;2.00;;;;;;;;;;5033242;28;20038;-56
2021/11/30 10:10:13;;;;;;;3.53;3.00;;;;;;;;;;5038915;28;20033;-55
2021/11/30 10:12:38;;;;;;;2.60;2.08;;;;;;;;;;5033347;28;20115;-55
2021/11/30 10:15:08;;;;;;;2.78;2.47;;;;;;;;;;5032919;28;20455;-52
2021/11/30 10:17:35;;;;;;;2.90;2.38;;;;;;;;;;5036285;28;20056;-55
2021/11/30 10:20:08;;;;;;;2.50;1.90;;;;;;;;;;5029836;28;20045;-52
2021/11/30 10:22:53;;;;;;;2.70;2.25;;;;;;;;;;5040596;28;20028;-50
2021/11/30 10:25:28;;;;;;;2.67;2.13;;;;;;;;;;5033638;28;20102;-55
2021/11/30 10:27:59;;;;;;;2.60;2.03;;;;;;;;;;5035145;28;20057;-54
2021/11/30 10:30:28;;;;;;;2.70;2.22;;;;;;;;;;5030412;28;20037;-53
2021/11/30 10:32:56;;;;;;;2.60;2.00;;;;;;;;;;5030280;28;20148;-49
2021/11/30 10:35:25;;;;;;;2.72;2.22;;;;;;;;;;5032056;28;20498;-54
2021/11/30 10:37:51;;;;;;;2.67;2.20;;;;;;;;;;5032951;28;20099;-53
2021/11/30 10:40:22;;;;;;;2.70;2.08;;;;;;;;;;5032991;28;20440;-52
2021/11/30 10:42:56;;;;;;;2.70;2.22;;;;;;;;;;5034691;28;20536;-52
2021/11/30 10:45:38;;;;;;;2.60;2.00;;;;;;;;;;5033796;28;20124;-54
2021/11/30 10:48:04;;;;;;;2.65;2.10;;;;;;;;;;5034751;28;20048;-52
2021/11/30 10:50:33;;;;;;;2.78;2.17;;;;;;;;;;5033217;28;20038;-52
2021/11/30 10:53:00;;;;;;;2.60;2.10;;;;;;;;;;5034579;28;20363;-49
2021/11/30 10:55:26;;;;;;;2.88;2.22;;;;;;;;;;5035219;28;20036;-55
2021/11/30 10:57:52;;;;;;;2.80;2.30;;;;;;;;;;5025453;28;20033;-53
2021/11/30 11:00:31;;;;;;;2.60;2.05;;;;;;;;;;5030806;28;20533;-55
2021/11/30 11:03:07;;;;;;;2.70;2.00;;;;;;;;;;5035467;28;20040;-51
2021/11/30 11:05:40;;;;;;;2.70;2.20;;;;;;;;;;5032417;28;20118;-55
2021/11/30 11:08:07;;;;;;;2.50;2.00;;;;;;;;;;5035222;28;20051;-52
2021/11/30 11:10:35;;;;;;;3.72;2.53;;;;;;;;;;5034404;28;20041;-54
2021/11/30 11:13:20;;;;;;;2.60;2.00;;;;;;;;;;5032828;28;20041;-52
2021/11/30 11:15:45;;;;;;;2.60;2.08;;;;;;;;;;5031911;28;20057;-54
2021/11/30 11:18:17;;;;;;;2.90;2.30;;;;;;;;;;5033794;28;20502;-54
2021/11/30 11:20:44;;;;;;;2.72;2.28;;;;;;;;;;5034495;28;20414;-55
2021/11/30 11:23:19;;;;;;;2.78;2.45;;;;;;;;;;5031910;28;20033;-54
2021/11/30 11:25:45;;;;;;;2.75;2.30;;;;;;;;;;5033573;28;20049;-55
2021/11/30 11:28:10;;;;;;;2.80;2.40;;;;;;;;;;5034081;28;20060;-54
2021/11/30 11:30:36;;;;;;;2.60;2.10;;;;;;;;;;5033092;28;20040;-52
2021/11/30 11:33:01;;;;;;;2.55;2.00;;;;;;;;;;5032526;28;20060;-55
2021/11/30 11:35:27;;;;;;;2.60;1.98;;;;;;;;;;5034548;28;20506;-56
2021/11/30 11:37:54;;;;;;;2.90;2.40;;;;;;;;;;5035323;28;20159;-55
2021/11/30 11:40:19;;;;;;;2.70;2.20;;;;;;;;;;5035566;28;20522;-54
2021/11/30 11:42:45;;;;;;;2.63;2.10;;;;;;;;;;5033004;28;20045;-49
2021/11/30 11:45:10;;;;;;;2.70;2.33;;;;;;;;;;5038736;28;20589;-47
2021/11/30 11:47:36;;;;;;;2.58;2.05;;;;;;;;;;5035849;28;20364;-47
2021/11/30 11:50:11;;;;;;;2.80;2.10;;;;;;;;;;5034838;28;20818;-47
2021/11/30 11:52:38;;;;;;;2.65;2.20;;;;;;;;;;5036118;28;20455;-47
2021/11/30 11:55:10;;;;;;;2.90;2.35;;;;;;;;;;5037270;28;20534;-47
2021/11/30 11:57:36;;;;;;;3.20;2.45;;;;;;;;;;5036344;28;20033;-47
2021/11/30 12:00:20;;;;;;;2.80;2.28;;;;;;;;;;5037381;28;20041;-46
2021/11/30 12:02:53;;;;;;;3.20;2.78;;;;;;;;;;5033457;28;20086;-47
2021/11/30 12:05:52;;;;;;;2.80;2.30;;;;;;;;;;5034350;28;20040;-49
2021/11/30 12:08:32;;;;;;;2.70;2.15;;;;;;;;;;5040004;28;20087;-49
2021/11/30 12:10:59;;;;;;;2.83;2.33;;;;;;;;;;5036806;28;20028;-49
2021/11/30 12:13:26;;;;;;;2.80;2.30;;;;;;;;;;5039282;28;20048;-46
2021/11/30 12:15:59;;;;;;;3.10;2.65;;;;;;;;;;5036728;28;20060;-47
2021/11/30 12:18:47;;;;;;;2.80;2.40;;;;;;;;;;5035296;28;20064;-48
2021/11/30 12:21:17;;;;;;;3.28;2.50;;;;;;;;;;5035836;28;20046;-49
2021/11/30 12:23:47;;;;;;;2.90;2.30;;;;;;;;;;5033630;28;20033;-48
2021/11/30 12:26:34;;;;;;;2.60;2.10;;;;;;;;;;5035851;28;20134;-47
2021/11/30 12:29:01;;;;;;;2.60;2.08;;;;;;;;;;5022648;28;20056;-47
2021/11/30 12:31:33;;;;;;;2.90;2.42;;;;;;;;;;5020467;28;20029;-46
2021/11/30 12:33:59;;;;;;;2.80;2.40;;;;;;;;;;5021391;28;20427;-47
2021/11/30 12:36:31;;;;;;;2.72;2.42;;;;;;;;;;5021634;28;20128;-45
2021/11/30 12:39:02;;;;;;;2.90;2.45;;;;;;;;;;5020496;28;20510;-47
2021/11/30 12:41:33;;;;;;;2.70;2.30;;;;;;;;;;5021284;28;20067;-51
2021/11/30 12:44:18;;;;;;;2.90;2.30;;;;;;;;;;5020357;28;20033;-47
2021/11/30 12:46:49;;;;;;;2.83;2.50;;;;;;;;;;5021981;28;20116;-48
2021/11/30 12:49:35;;;;;;;2.90;2.60;;;;;;;;;;5020137;28;20053;-49
2021/11/30 12:52:17;;;;;;;2.67;2.20;;;;;;;;;;5021682;28;20053;-45
2021/11/30 12:54:47;;;;;;;3.10;2.53;;;;;;;;;;5020441;28;20037;-48
2021/11/30 12:57:36;;;;;;;2.90;2.38;;;;;;;;;;5019587;28;20037;-46
2021/11/30 13:00:09;;;;;;;2.63;2.13;;;;;;;;;;5019919;28;20056;-50
2021/11/30 13:02:41;;;;;;;2.75;2.45;;;;;;;;;;5017813;28;20041;-47
2021/11/30 13:05:09;;;;;;;2.70;2.20;;;;;;;;;;5021027;28;20072;-48
2021/11/30 13:07:47;;;;;;;2.70;2.20;;;;;;;;;;5019808;28;20423;-46
2021/11/30 13:10:33;;;;;;;2.78;2.47;;;;;;;;;;5024165;28;20068;-48
2021/11/30 13:13:22;;;;;;;2.70;2.40;;;;;;;;;;5022274;28;20041;-46
2021/11/30 13:15:57;;;;;;;2.90;2.55;;;;;;;;;;5022412;28;20038;-50
2021/11/30 13:18:25;;;;;;;2.60;2.13;;;;;;;;;;5021218;28;20637;-46
2021/11/30 13:20:51;;;;;;;2.78;2.47;;;;;;;;;;5020387;28;20120;-50
2021/11/30 13:23:18;;;;;;;3.10;2.47;;;;;;;;;;5023839;28;20486;-47
2021/11/30 13:25:44;;;;;;;2.70;2.30;;;;;;;;;;5019212;28;20033;-47
2021/11/30 13:28:16;;;;;;;2.60;2.03;;;;;;;;;;5021056;28;20033;-49
2021/11/30 13:30:43;;;;;;;2.70;2.28;;;;;;;;;;5018690;28;20692;-48
2021/11/30 13:33:21;;;;;;;2.80;2.45;;;;;;;;;;5020975;28;20038;-47
2021/11/30 13:35:51;;;;;;;2.90;2.50;;;;;;;;;;5022167;28;20034;-46
2021/11/30 13:38:30;;;;;;;2.90;2.58;;;;;;;;;;5021809;28;20048;-47
2021/11/30 13:40:58;;;;;;;2.70;2.17;;;;;;;;;;5021110;28;20045;-49
2021/11/30 13:43:29;;;;;;;2.70;2.17;;;;;;;;;;5020028;28;20034;-46
2021/11/30 13:46:03;;;;;;;2.90;2.60;;;;;;;;;;5015998;28;20049;-46
2021/11/30 13:48:34;;;;;;;2.50;1.90;;;;;;;;;;5018407;28;20041;-48
2021/11/30 13:51:02;;;;;;;;;;;;;;;;;;5016445;28;20379;-47
2021/11/30 13:53:32;;;;;;;3.00;2.13;;;;;;;;;;5022368;28;19921;-48
2021/11/30 13:56:20;;;;;;;2.90;2.47;;;;;;;;;;5023862;28;20112;-47
2021/11/30 13:58:48;;;;;;;2.70;2.25;;;;;;;;;;5020154;28;20038;-47
2021/11/30 14:01:20;;;;;;;2.70;2.30;;;;;;;;;;5021193;28;20040;-46
2021/11/30 14:03:47;;;;;;;;;;;;;;;;;;5018381;28;20034;-48
2021/11/30 14:06:23;;;;;;;2.80;2.50;;;;;;;;;;5021617;28;19964;-46
2021/11/30 14:08:49;;;;;;;2.60;2.10;;;;;;;;;;5026957;28;20133;-47
2021/11/30 14:11:16;;;;;;;2.80;2.33;;;;;;;;;;5038968;28;20506;-47
2021/11/30 14:13:42;;;;;;;2.75;2.42;;;;;;;;;;5033823;28;20118;-46
2021/11/30 14:16:08;;;;;;;3.00;2.60;;;;;;;;;;5032152;28;20034;-47
2021/11/30 14:18:59;;;;;;;2.85;2.20;;;;;;;;;;5032342;28;20343;-48
2021/11/30 14:21:29;;;;;;;2.85;2.10;;;;;;;;;;5035106;28;20068;-50
2021/11/30 14:24:14;;;;;;;2.70;2.28;;;;;;;;;;5030060;28;20033;-48
2021/11/30 14:26:45;;;;;;;2.80;2.35;;;;;;;;;;5030086;28;20040;-50
2021/11/30 14:29:14;;;;;;;2.70;2.30;;;;;;;;;;5013172;28;20037;-47
2021/11/30 14:31:50;;;;;;;2.60;2.10;;;;;;;;;;5026870;28;20458;-49
2021/11/30 14:34:16;;;;;;;2.80;2.35;;;;;;;;;;5029702;28;20049;-48
2021/11/30 14:36:42;;;;;;;2.70;2.28;;;;;;;;;;5032117;28;20370;-46
2021/11/30 14:39:28;;;;;;;3.00;2.17;;;;;;;;;;5027843;28;20037;-47
2021/11/30 14:41:54;;;;;;;2.80;2.38;;;;;;;;;;5033620;28;20112;-47
2021/11/30 14:44:32;;;;;;;2.70;2.25;;;;;;;;;;5032579;28;20028;-50
2021/11/30 14:47:16;;;;;;;2.80;2.30;;;;;;;;;;5026545;28;20063;-47
2021/11/30 14:50:00;;;;;;;4.07;2.53;;;;;;;;;;5020241;28;20086;-46
2021/11/30 14:52:41;;;;;;;2.80;2.40;;;;;;;;;;5030991;28;20032;-46
2021/11/30 14:55:23;;;;;;;2.70;2.38;;;;;;;;;;5033199;28;20029;-48
2021/11/30 14:58:16;;;;;;;2.70;2.17;;;;;;;;;;5031911;28;20029;-53
2021/11/30 15:01:06;;;;;;;2.63;2.20;;;;;;;;;;5030360;28;20025;-47
2021/11/30 15:03:38;;;;;;;2.65;2.22;;;;;;;;;;5029706;28;20040;-46
2021/11/30 15:06:09;;;;;;;2.70;2.30;;;;;;;;;;5032822;28;20959;-47